createdAt,value
2023-01-19T00:01:32.009Z,80.87
2023-01-19T00:03:58.753Z,80.76
2023-01-19T00:06:25.499Z,80.64
2023-01-19T00:08:52.250Z,80.40
2023-01-19T00:11:19.828Z,80.39
2023-01-19T00:13:50.620Z,80.56
2023-01-19T00:16:19.984Z,80.68
2023-01-19T00:18:47.461Z,80.62
2023-01-19T00:21:17.205Z,80.52
2023-01-19T00:23:47.459Z,80.73
2023-01-19T00:26:40.266Z,80.68
2023-01-19T00:29:33.759Z,80.48
2023-01-19T00:32:10.900Z,80.21
2023-01-19T00:34:40.998Z,80.22
2023-01-19T00:37:34.051Z,80.29
2023-01-19T00:40:00.836Z,80.32
2023-01-19T00:42:46.125Z,80.16
2023-01-19T00:45:18.089Z,80.11
2023-01-19T00:47:45.201Z,80.29
2023-01-19T00:50:12.959Z,80.26
2023-01-19T00:52:40.807Z,80.15
2023-01-19T00:55:08.684Z,80.05
2023-01-19T00:57:39.113Z,80.11
2023-01-19T01:00:09.307Z,79.99
2023-01-19T01:02:37.014Z,80.11
2023-01-19T01:05:06.269Z,80.05
2023-01-19T01:07:44.651Z,79.82
2023-01-19T01:10:15.606Z,80.06
2023-01-19T01:12:56.398Z,79.88
2023-01-19T01:15:27.198Z,80.11
2023-01-19T01:17:54.616Z,79.63
2023-01-19T01:20:25.413Z,79.66
2023-01-19T01:22:53.175Z,79.81
2023-01-19T01:25:22.764Z,79.76
2023-01-19T01:27:50.022Z,79.81
2023-01-19T01:30:17.953Z,79.72
2023-01-19T01:32:44.768Z,79.94
2023-01-19T01:35:11.903Z,79.69
2023-01-19T01:37:38.956Z,79.64
2023-01-19T01:40:06.857Z,79.67
2023-01-19T01:42:35.443Z,79.62
2023-01-19T01:45:06.302Z,79.58
2023-01-19T01:47:43.113Z,79.70
2023-01-19T01:50:23.326Z,79.86
2023-01-19T01:53:07.260Z,79.82
2023-01-19T01:55:47.067Z,79.66
2023-01-19T01:58:14.133Z,79.63
2023-01-19T02:00:59.816Z,79.76
2023-01-19T02:03:27.148Z,79.78
2023-01-19T02:05:59.478Z,79.92
2023-01-19T02:08:52.179Z,79.64
2023-01-19T02:11:37.724Z,79.72
2023-01-19T02:14:05.507Z,79.46
2023-01-19T02:16:34.112Z,79.82
2023-01-19T02:19:01.356Z,79.59
2023-01-19T02:21:30.764Z,79.69
2023-01-19T02:23:59.254Z,79.68
2023-01-19T02:26:38.675Z,79.54
2023-01-19T02:29:08.446Z,79.50
2023-01-19T02:31:40.253Z,79.64
2023-01-19T02:34:15.540Z,79.47
2023-01-19T02:36:46.796Z,79.47
2023-01-19T02:39:14.305Z,79.77
2023-01-19T02:41:46.058Z,79.36
2023-01-19T02:44:13.167Z,79.38
2023-01-19T02:46:40.868Z,79.51
2023-01-19T02:49:07.775Z,79.39
2023-01-19T02:51:34.674Z,79.64
2023-01-19T02:54:24.394Z,79.57
2023-01-19T02:57:09.996Z,79.25
2023-01-19T02:59:52.336Z,79.44
2023-01-19T03:02:47.158Z,79.54
2023-01-19T03:05:38.525Z,79.45
2023-01-19T03:08:16.440Z,79.44
2023-01-19T03:11:02.378Z,79.63
2023-01-19T03:13:54.902Z,79.51
2023-01-19T03:16:27.169Z,79.87
2023-01-19T03:19:02.672Z,79.89
2023-01-19T03:21:29.857Z,79.87
2023-01-19T03:23:59.032Z,79.80
2023-01-19T03:26:29.369Z,79.77
2023-01-19T03:28:56.920Z,79.92
2023-01-19T03:31:26.220Z,79.67
2023-01-19T03:33:56.410Z,79.82
2023-01-19T03:36:27.833Z,79.68
2023-01-19T03:38:55.268Z,79.82
2023-01-19T03:41:24.487Z,79.83
2023-01-19T03:43:52.151Z,79.62
2023-01-19T03:46:20.152Z,79.67
2023-01-19T03:48:47.311Z,79.56
2023-01-19T03:51:14.683Z,79.69
2023-01-19T03:53:44.080Z,79.56
2023-01-19T03:56:21.818Z,79.69
2023-01-19T03:58:49.164Z,79.52
2023-01-19T04:01:16.738Z,79.54
2023-01-19T04:03:44.102Z,79.72
2023-01-19T04:06:13.013Z,79.46
2023-01-19T04:08:40.915Z,79.47
2023-01-19T04:11:08.436Z,79.50
2023-01-19T04:13:35.538Z,79.50
2023-01-19T04:16:03.991Z,79.36
2023-01-19T04:18:33.829Z,79.41
2023-01-19T04:21:05.461Z,79.63
2023-01-19T04:23:32.555Z,79.53
2023-01-19T04:26:05.148Z,79.55
2023-01-19T04:28:33.200Z,79.57
2023-01-19T04:30:59.956Z,79.65
2023-01-19T04:33:27.628Z,79.73
2023-01-19T04:35:57.276Z,79.64
2023-01-19T04:38:25.358Z,79.48
2023-01-19T04:40:53.540Z,79.69
2023-01-19T04:43:21.080Z,79.31
2023-01-19T04:45:48.172Z,79.47
2023-01-19T04:48:15.359Z,79.42
2023-01-19T04:50:42.412Z,79.63
2023-01-19T04:53:09.453Z,79.62
2023-01-19T04:55:37.509Z,79.63
2023-01-19T04:58:04.438Z,79.54
2023-01-19T05:00:31.264Z,79.45
2023-01-19T05:02:58.203Z,79.36
2023-01-19T05:05:25.266Z,79.55
2023-01-19T05:07:51.972Z,79.60
2023-01-19T05:10:19.043Z,79.62
2023-01-19T05:12:45.890Z,79.45
2023-01-19T05:15:12.712Z,79.46
2023-01-19T05:17:39.537Z,79.67
2023-01-19T05:20:06.985Z,79.47
2023-01-19T05:22:33.772Z,79.49
2023-01-19T05:25:01.827Z,79.44
2023-01-19T05:27:28.560Z,79.41
2023-01-19T05:29:55.335Z,79.45
2023-01-19T05:32:22.041Z,79.60
2023-01-19T05:34:48.793Z,79.65
2023-01-19T05:37:18.313Z,79.38
2023-01-19T05:39:45.244Z,79.61
2023-01-19T05:42:12.404Z,79.71
2023-01-19T05:44:39.215Z,79.50
2023-01-19T05:47:05.985Z,79.53
2023-01-19T05:49:32.758Z,79.74
2023-01-19T05:51:59.558Z,79.50
2023-01-19T05:54:26.272Z,79.52
2023-01-19T05:56:52.993Z,79.47
2023-01-19T05:59:24.268Z,79.54
2023-01-19T06:01:52.311Z,79.65
2023-01-19T06:04:21.844Z,79.84
2023-01-19T06:06:49.630Z,79.99
2023-01-19T06:09:17.527Z,79.94
2023-01-19T06:11:45.168Z,79.90
2023-01-19T06:14:12.257Z,80.04
2023-01-19T06:16:39.533Z,79.82
2023-01-19T06:19:06.547Z,79.83
2023-01-19T06:21:34.439Z,79.79
2023-01-19T06:24:01.324Z,79.80
2023-01-19T06:26:30.712Z,79.74
2023-01-19T06:28:57.868Z,79.89
2023-01-19T06:31:24.662Z,79.84
2023-01-19T06:33:51.742Z,79.69
2023-01-19T06:36:18.452Z,79.75
2023-01-19T06:38:45.143Z,79.82
2023-01-19T06:41:14.647Z,80.06
2023-01-19T06:43:41.356Z,79.77
2023-01-19T06:46:09.625Z,79.67
2023-01-19T06:48:36.319Z,79.81
2023-01-19T06:51:03.024Z,79.83
2023-01-19T06:53:30.366Z,79.63
2023-01-19T06:56:01.972Z,79.64
2023-01-19T06:58:31.092Z,79.90
2023-01-19T07:01:03.430Z,79.72
2023-01-19T07:03:30.640Z,79.69
2023-01-19T07:05:57.459Z,79.80
2023-01-19T07:08:24.814Z,79.65
2023-01-19T07:11:24.755Z,79.66
2023-01-19T07:13:39.855Z,79.84
2023-01-19T07:16:11.636Z,80.03
2023-01-19T07:18:39.786Z,80.23
2023-01-19T07:21:09.186Z,80.11
2023-01-19T07:23:36.108Z,80.26
2023-01-19T07:26:02.901Z,80.40
2023-01-19T07:28:31.176Z,80.34
2023-01-19T07:30:58.012Z,80.39
2023-01-19T07:33:28.053Z,80.09
2023-01-19T07:35:54.925Z,80.15
2023-01-19T07:38:21.724Z,79.88
2023-01-19T07:40:48.382Z,80.09
2023-01-19T07:43:15.652Z,79.96
2023-01-19T07:45:42.964Z,79.85
2023-01-19T07:48:09.789Z,79.93
2023-01-19T07:50:36.528Z,80.07
2023-01-19T07:53:07.614Z,79.87
2023-01-19T07:55:34.546Z,79.76
2023-01-19T07:58:01.372Z,80.05
2023-01-19T08:00:28.478Z,79.93
2023-01-19T08:03:00.188Z,79.97
2023-01-19T08:05:29.277Z,79.69
2023-01-19T08:07:59.533Z,80.02
2023-01-19T08:10:27.488Z,79.94
2023-01-19T08:12:55.101Z,79.60
2023-01-19T08:15:25.306Z,79.88
2023-01-19T08:17:59.439Z,79.94
2023-01-19T08:20:27.154Z,80.00
2023-01-19T08:23:01.675Z,80.18
2023-01-19T08:25:42.319Z,80.03
2023-01-19T08:28:09.616Z,79.76
2023-01-19T08:30:36.803Z,79.71
2023-01-19T08:33:04.515Z,79.98
2023-01-19T08:35:32.210Z,79.91
2023-01-19T08:38:01.603Z,79.90
2023-01-19T08:40:30.388Z,79.86
2023-01-19T08:43:12.021Z,79.80
2023-01-19T08:45:46.635Z,79.91
2023-01-19T08:48:15.473Z,79.87
2023-01-19T08:50:42.225Z,79.90
2023-01-19T08:53:10.120Z,79.86
2023-01-19T08:55:37.698Z,79.93
2023-01-19T08:58:05.413Z,80.04
2023-01-19T09:00:33.912Z,79.94
2023-01-19T09:03:04.702Z,79.71
2023-01-19T09:05:35.734Z,79.73
2023-01-19T09:08:03.288Z,79.66
2023-01-19T09:10:35.953Z,79.85
2023-01-19T09:13:08.539Z,79.86
2023-01-19T09:15:37.779Z,79.69
2023-01-19T09:18:06.983Z,79.61
2023-01-19T09:20:34.888Z,79.59
2023-01-19T09:23:01.634Z,79.46
2023-01-19T09:25:28.347Z,79.49
2023-01-19T09:27:56.239Z,79.43
2023-01-19T09:30:22.955Z,79.34
2023-01-19T09:32:49.644Z,79.38
2023-01-19T09:35:16.602Z,79.33
2023-01-19T09:37:46.691Z,79.51
2023-01-19T09:40:14.387Z,79.24
2023-01-19T09:42:47.439Z,79.39
2023-01-19T09:45:19.248Z,79.14
2023-01-19T09:47:49.715Z,79.23
2023-01-19T09:50:24.079Z,79.26
2023-01-19T09:53:01.816Z,79.42
2023-01-19T09:55:29.550Z,79.11
2023-01-19T09:57:56.330Z,79.26
2023-01-19T10:00:24.393Z,79.21
2023-01-19T10:03:13.545Z,79.04
2023-01-19T10:05:45.509Z,79.13
2023-01-19T10:08:40.157Z,79.06
2023-01-19T10:11:20.437Z,78.76
2023-01-19T10:13:49.574Z,78.81
2023-01-19T10:16:23.519Z,78.49
2023-01-19T10:18:52.722Z,78.30
2023-01-19T10:21:22.968Z,78.19
2023-01-19T10:23:54.817Z,78.08
2023-01-19T10:26:25.243Z,78.26
2023-01-19T10:28:55.722Z,77.72
2023-01-19T10:31:23.910Z,77.91
2023-01-19T10:33:51.267Z,77.79
2023-01-19T10:36:26.091Z,77.52
2023-01-19T10:38:52.953Z,77.62
2023-01-19T10:41:39.753Z,77.33
2023-01-19T10:44:09.574Z,77.09
2023-01-19T10:46:47.401Z,77.16
2023-01-19T10:49:28.152Z,76.79
2023-01-19T10:51:55.477Z,76.84
2023-01-19T10:54:23.049Z,76.91
2023-01-19T10:57:03.122Z,76.65
2023-01-19T10:59:38.604Z,76.44
2023-01-19T11:02:17.116Z,76.23
2023-01-19T11:04:47.339Z,76.14
2023-01-19T11:07:20.265Z,75.93
2023-01-19T11:10:11.836Z,75.76
2023-01-19T11:13:03.345Z,75.43
2023-01-19T11:15:49.063Z,75.28
2023-01-19T11:18:34.052Z,74.93
2023-01-19T11:21:07.156Z,74.69
2023-01-19T11:23:46.858Z,74.86
2023-01-19T11:26:18.431Z,74.49
2023-01-19T11:28:51.452Z,74.35
2023-01-19T11:31:33.650Z,74.47
2023-01-19T11:34:06.056Z,74.66
2023-01-19T11:36:35.557Z,74.64
2023-01-19T11:39:28.061Z,74.42
2023-01-19T11:41:59.636Z,74.31
2023-01-19T11:44:30.924Z,74.19
2023-01-19T11:47:03.336Z,73.79
2023-01-19T11:49:40.693Z,73.59
2023-01-19T11:52:26.478Z,73.69
2023-01-19T11:55:02.109Z,73.24
2023-01-19T11:57:29.114Z,73.17
2023-01-19T11:59:55.901Z,73.01
2023-01-19T12:02:38.849Z,72.82
2023-01-19T12:05:11.789Z,72.77
2023-01-19T12:07:38.938Z,72.60
2023-01-19T12:10:21.231Z,72.47
2023-01-19T12:12:47.999Z,72.28
2023-01-19T12:15:33.340Z,71.94
2023-01-19T12:18:02.228Z,71.83
2023-01-19T12:20:36.510Z,71.63
2023-01-19T12:23:22.036Z,71.52
2023-01-19T12:26:14.319Z,71.32
2023-01-19T12:28:43.560Z,71.25
2023-01-19T12:31:10.602Z,71.42
2023-01-19T12:33:40.784Z,71.76
2023-01-19T12:36:41.382Z,71.84
2023-01-19T12:39:18.406Z,71.30
2023-01-19T12:41:47.142Z,71.12
2023-01-19T12:44:16.127Z,71.01
2023-01-19T12:46:58.191Z,70.89
2023-01-19T12:49:34.971Z,70.99
2023-01-19T12:52:20.959Z,70.63
2023-01-19T12:55:09.584Z,70.82
2023-01-19T12:58:05.325Z,70.24
2023-01-19T13:00:38.252Z,70.49
2023-01-19T13:03:19.641Z,70.22
2023-01-19T13:05:52.717Z,70.22
2023-01-19T13:08:23.409Z,70.44
2023-01-19T13:10:59.543Z,70.47
2023-01-19T13:13:37.748Z,70.48
2023-01-19T13:16:20.096Z,70.42
2023-01-19T13:18:49.292Z,70.20
2023-01-19T13:21:39.865Z,70.27
2023-01-19T13:24:09.654Z,70.04
2023-01-19T13:26:40.268Z,70.16
2023-01-19T13:29:10.352Z,69.80
2023-01-19T13:31:39.591Z,69.73
2023-01-19T13:34:16.154Z,69.72
2023-01-19T13:36:45.994Z,69.82
2023-01-19T13:39:18.417Z,69.92
2023-01-19T13:41:46.567Z,70.06
2023-01-19T13:44:33.554Z,69.96
2023-01-19T13:47:03.582Z,70.25
2023-01-19T13:49:34.264Z,70.17
2023-01-19T13:52:22.192Z,70.09
2023-01-19T13:54:57.006Z,70.30
2023-01-19T13:57:26.730Z,70.48
2023-01-19T14:00:14.598Z,70.32
2023-01-19T14:02:45.655Z,70.23
2023-01-19T14:05:21.147Z,70.48
2023-01-19T14:07:48.730Z,70.25
2023-01-19T14:10:16.839Z,70.40
2023-01-19T14:12:58.721Z,70.56
2023-01-19T14:15:26.102Z,70.59
2023-01-19T14:18:21.036Z,70.50
2023-01-19T14:21:07.684Z,70.73
2023-01-19T14:23:41.269Z,70.86
2023-01-19T14:26:48.932Z,71.02
2023-01-19T14:29:19.768Z,70.96
2023-01-19T14:31:47.694Z,71.34
2023-01-19T14:34:46.996Z,71.53
2023-01-19T14:37:16.042Z,71.53
2023-01-19T14:39:51.354Z,71.68
2023-01-19T15:08:53.153Z,73.60
2023-01-19T15:12:29.676Z,74.08
2023-01-19T15:15:48.863Z,74.21
2023-01-19T15:18:49.913Z,74.17
2023-01-19T15:21:51.824Z,74.60
2023-01-19T15:25:21.396Z,74.76
2023-01-19T15:47:19.910Z,76.05
2023-01-19T15:49:49.972Z,75.82
2023-01-19T15:52:17.201Z,76.13
2023-01-19T15:54:43.991Z,76.46
2023-01-19T15:57:10.946Z,76.31
2023-01-19T15:59:37.662Z,76.30
2023-01-19T16:02:07.180Z,76.33
2023-01-19T16:04:34.105Z,76.49
2023-01-19T16:07:00.837Z,76.52
2023-01-19T16:09:30.387Z,76.55
2023-01-19T16:11:57.595Z,76.57
2023-01-19T16:14:24.306Z,76.85
2023-01-19T16:16:51.608Z,76.83
2023-01-19T16:19:31.770Z,76.82
2023-01-19T16:25:18.504Z,77.10
2023-01-19T16:27:48.477Z,77.08
2023-01-19T16:31:10.895Z,77.21
2023-01-19T16:34:17.834Z,77.37
2023-01-19T16:36:48.292Z,77.12
2023-01-19T16:39:15.718Z,77.35
2023-01-19T16:41:46.884Z,77.33
2023-01-19T16:47:22.188Z,77.32
2023-01-19T16:49:51.678Z,77.34
2023-01-19T16:52:18.465Z,77.67
2023-01-19T16:54:45.207Z,77.47
2023-01-19T16:57:12.039Z,77.74
2023-01-19T16:59:39.915Z,77.50
2023-01-19T17:02:07.227Z,77.70
2023-01-19T17:04:34.166Z,77.76
2023-01-19T17:07:01.198Z,77.83
2023-01-19T17:09:27.969Z,77.97
2023-01-19T17:11:55.445Z,77.88
2023-01-19T17:14:22.206Z,77.73
2023-01-19T17:16:49.456Z,77.90
2023-01-19T17:19:17.978Z,77.93
2023-01-19T17:21:46.391Z,77.79
2023-01-19T17:24:13.436Z,77.78
2023-01-19T17:26:41.650Z,77.85
2023-01-19T17:29:09.970Z,77.90
2023-01-19T17:31:37.612Z,78.04
2023-01-19T17:34:04.685Z,77.75
2023-01-19T17:36:32.583Z,77.76
2023-01-19T17:39:01.467Z,77.85
2023-01-19T17:41:30.805Z,78.05
2023-01-19T17:44:00.818Z,77.86
2023-01-19T17:46:29.047Z,78.08
2023-01-19T17:49:01.590Z,78.25
2023-01-19T17:51:29.376Z,78.50
2023-01-19T17:53:56.629Z,78.66
2023-01-19T17:56:29.906Z,78.50
2023-01-19T17:58:57.640Z,78.51
2023-01-19T18:01:27.347Z,78.43
2023-01-19T18:03:54.490Z,78.57
2023-01-19T18:06:21.496Z,78.51
2023-01-19T18:08:49.448Z,78.58
2023-01-19T18:11:18.061Z,78.67
2023-01-19T18:13:46.520Z,78.42
2023-01-19T18:16:25.771Z,78.54
2023-01-19T18:18:53.794Z,78.51
2023-01-19T18:21:21.968Z,78.63
2023-01-19T18:23:49.864Z,78.51
2023-01-19T18:26:19.554Z,78.64
2023-01-19T18:28:47.078Z,78.57
2023-01-19T18:31:16.971Z,78.47
2023-01-19T18:33:44.001Z,78.60
2023-01-19T18:36:10.834Z,78.41
2023-01-19T18:38:38.590Z,78.80
2023-01-19T18:41:07.863Z,78.73
2023-01-19T18:43:35.145Z,78.67
2023-01-19T18:46:02.371Z,78.71
2023-01-19T18:48:29.475Z,78.70
2023-01-19T18:50:56.554Z,78.52
2023-01-19T18:53:26.955Z,78.64
2023-01-19T18:55:57.589Z,78.74
2023-01-19T18:58:24.679Z,78.66
2023-01-19T19:00:51.444Z,78.59
2023-01-19T19:03:18.414Z,78.63
2023-01-19T19:05:45.161Z,78.61
2023-01-19T19:08:15.138Z,78.49
2023-01-19T19:10:43.370Z,78.81
2023-01-19T19:13:15.431Z,78.82
2023-01-19T19:15:44.559Z,78.81
2023-01-19T19:18:14.089Z,78.62
2023-01-19T19:20:44.206Z,78.69
2023-01-19T19:23:11.765Z,78.69
2023-01-19T19:25:41.528Z,78.54
2023-01-19T19:28:08.609Z,78.65
2023-01-19T19:30:39.196Z,78.69
2023-01-19T19:33:09.418Z,78.73
2023-01-19T19:35:36.494Z,78.72
2023-01-19T19:38:03.480Z,78.71
2023-01-19T19:40:30.499Z,78.83
2023-01-19T19:43:00.498Z,78.96
2023-01-19T19:45:27.425Z,79.06
2023-01-19T19:47:54.197Z,78.95
2023-01-19T19:50:21.232Z,78.70
2023-01-19T19:52:48.202Z,78.72
2023-01-19T19:55:15.392Z,79.11
2023-01-19T19:57:42.169Z,78.94
2023-01-19T20:00:09.920Z,78.83
2023-01-19T20:02:37.158Z,78.99
2023-01-19T20:05:05.013Z,78.87
2023-01-19T20:07:32.887Z,79.14
2023-01-19T20:09:59.600Z,78.84
2023-01-19T20:12:26.392Z,79.24
2023-01-19T20:14:53.413Z,78.99
2023-01-19T20:17:20.890Z,78.99
2023-01-19T20:19:49.104Z,79.17
2023-01-19T20:22:16.338Z,78.83
2023-01-19T20:24:43.277Z,79.23
2023-01-19T20:27:10.072Z,79.08
2023-01-19T20:29:37.213Z,78.86
2023-01-19T20:32:04.421Z,78.91
2023-01-19T20:34:33.740Z,79.23
2023-01-19T20:37:01.920Z,79.22
2023-01-19T20:39:33.236Z,79.17
2023-01-19T20:42:01.071Z,79.25
2023-01-19T20:44:28.005Z,79.13
2023-01-19T20:46:55.715Z,79.36
2023-01-19T20:49:24.391Z,79.19
2023-01-19T20:51:52.341Z,79.26
2023-01-19T20:54:24.718Z,79.51
2023-01-19T20:56:51.894Z,79.40
2023-01-19T20:59:19.346Z,79.55
2023-01-19T21:01:48.756Z,79.58
2023-01-19T21:04:17.251Z,79.61
2023-01-19T21:06:44.212Z,79.63
2023-01-19T21:09:11.350Z,79.48
2023-01-19T21:11:39.054Z,79.46
2023-01-19T21:14:06.645Z,79.76
2023-01-19T21:16:35.435Z,79.67
2023-01-19T21:19:02.520Z,79.48
2023-01-19T21:21:31.461Z,79.62
2023-01-19T21:24:01.250Z,79.66
2023-01-19T21:26:31.806Z,79.80
2023-01-19T21:28:59.745Z,79.77
2023-01-19T21:31:27.939Z,79.45
2023-01-19T21:33:55.218Z,79.46
2023-01-19T21:36:22.707Z,79.56
2023-01-19T21:38:51.517Z,79.62
2023-01-19T21:41:18.722Z,79.65
2023-01-19T21:43:46.368Z,79.55
2023-01-19T21:46:14.789Z,79.81
2023-01-19T21:48:42.528Z,79.54
2023-01-19T21:51:13.262Z,79.71
2023-01-19T21:53:40.064Z,79.73
2023-01-19T21:56:08.490Z,79.81
2023-01-19T21:58:35.341Z,79.84
2023-01-19T22:01:05.144Z,79.91
2023-01-19T22:03:32.167Z,80.00
2023-01-19T22:06:06.800Z,79.92
2023-01-19T22:08:34.149Z,79.92
2023-01-19T22:11:08.462Z,80.06
2023-01-19T22:13:36.473Z,80.08
2023-01-19T22:16:05.280Z,80.11
2023-01-19T22:18:31.971Z,80.02
2023-01-19T22:21:10.796Z,79.97
2023-01-19T22:23:37.636Z,80.18
2023-01-19T22:26:04.557Z,80.07
2023-01-19T22:28:31.526Z,80.15
2023-01-19T22:31:10.533Z,80.23
2023-01-19T22:33:41.386Z,80.28
2023-01-19T22:36:20.918Z,80.33
2023-01-19T22:38:53.846Z,80.36
2023-01-19T22:41:31.379Z,80.39
2023-01-19T22:44:00.951Z,80.23
2023-01-19T22:46:30.625Z,80.22
2023-01-19T22:48:59.150Z,80.38
2023-01-19T22:51:26.847Z,80.38
2023-01-19T22:53:53.835Z,80.24
2023-01-19T22:56:25.318Z,80.48
2023-01-19T22:58:52.430Z,80.46
2023-01-19T23:01:22.677Z,80.27
2023-01-19T23:03:52.213Z,80.54
2023-01-19T23:06:24.561Z,80.48
2023-01-19T23:08:52.059Z,80.56
2023-01-19T23:11:23.743Z,80.46
2023-01-19T23:13:50.976Z,80.66
2023-01-19T23:16:21.464Z,80.75
2023-01-19T23:18:48.390Z,80.82
2023-01-19T23:21:20.076Z,80.82
2023-01-19T23:23:47.090Z,80.93
2023-01-19T23:26:16.268Z,80.95
2023-01-19T23:28:43.688Z,80.85
2023-01-19T23:31:14.261Z,80.94
2023-01-19T23:33:41.764Z,80.98
2023-01-19T23:36:08.736Z,81.03
2023-01-19T23:38:35.437Z,81.13
2023-01-19T23:41:02.242Z,81.41
2023-01-19T23:43:29.001Z,81.45
2023-01-19T23:45:55.968Z,81.47
2023-01-19T23:48:22.814Z,81.56
2023-01-19T23:50:49.512Z,81.52
2023-01-19T23:53:16.263Z,81.96
2023-01-19T23:55:42.951Z,81.77
2023-01-19T23:58:09.726Z,81.99
